Terminal Aerodrome Forecast
Issued by NWS

Home | Current Version | Previous Version | Text Only | Print | Product List | Glossary On
Versions: 1 2 3 4 5 6 7 8 9 10 11 12 13
000
FTUS42 KMLB 221900 AAA
TAFLEE
TAF AMD
KLEE 221939Z 2220/2318 20005KT P6SM SCT035 SCT060 BKN250
      TEMPO 2220/2222 2SM TSRA BKN025CB
     FM222200 27005KT P6SM VCTS SCT040CB BKN250
     FM230000 VRB04KT P6SM SCT040 SCT060
     FM230300 VRB03KT P6SM SCT250
     FM231400 28005KT P6SM FEW040=

USA.gov is the U.S. government's official web portal to all federal, state and local government web resources and services.